sensor_id;sensor_type;location;lat;lon;timestamp;pressure;altitude;pressure_sealevel;temperature;humidity
61506;BME280;47366;51.916;4.574;2022-11-15T00:01:36;100897.59;;;6.88;96.15
61506;BME280;47366;51.916;4.574;2022-11-15T00:04:04;100891.28;;;6.89;95.45
61506;BME280;47366;51.916;4.574;2022-11-15T00:06:30;100894.69;;;6.93;95.24
61506;BME280;47366;51.916;4.574;2022-11-15T00:08:58;100893.09;;;6.89;95.62
61506;BME280;47366;51.916;4.574;2022-11-15T00:11:23;100895.78;;;6.89;95.88
61506;BME280;47366;51.916;4.574;2022-11-15T00:13:48;100901.09;;;6.90;96.09
61506;BME280;47366;51.916;4.574;2022-11-15T00:16:14;100892.16;;;6.90;95.65
61506;BME280;47366;51.916;4.574;2022-11-15T00:18:39;100894.69;;;6.93;96.95
61506;BME280;47366;51.916;4.574;2022-11-15T00:21:07;100885.69;;;6.94;96.41
61506;BME280;47366;51.916;4.574;2022-11-15T00:23:33;100879.34;;;6.95;95.87
61506;BME280;47366;51.916;4.574;2022-11-15T00:25:59;100882.84;;;6.97;96.31
61506;BME280;47366;51.916;4.574;2022-11-15T00:28:25;100887.22;;;6.99;96.64
61506;BME280;47366;51.916;4.574;2022-11-15T00:30:51;100877.25;;;7.01;96.09
61506;BME280;47366;51.916;4.574;2022-11-15T00:33:16;100880.00;;;7.00;96.29
61506;BME280;47366;51.916;4.574;2022-11-15T00:35:41;100886.94;;;7.06;95.94
61506;BME280;47366;51.916;4.574;2022-11-15T00:38:07;100876.19;;;7.06;96.33
61506;BME280;47366;51.916;4.574;2022-11-15T00:40:32;100875.28;;;7.05;96.46
61506;BME280;47366;51.916;4.574;2022-11-15T00:42:57;100865.41;;;7.06;97.47
61506;BME280;47366;51.916;4.574;2022-11-15T00:45:23;100872.47;;;7.08;97.19
61506;BME280;47366;51.916;4.574;2022-11-15T00:47:49;100870.50;;;7.12;97.65
61506;BME280;47366;51.916;4.574;2022-11-15T00:50:14;100870.50;;;7.12;96.50
61506;BME280;47366;51.916;4.574;2022-11-15T00:52:40;100867.72;;;7.13;97.24
61506;BME280;47366;51.916;4.574;2022-11-15T00:55:05;100862.25;;;7.15;97.26
61506;BME280;47366;51.916;4.574;2022-11-15T00:57:31;100857.75;;;7.15;98.17
61506;BME280;47366;51.916;4.574;2022-11-15T00:59:56;100854.97;;;7.17;98.39
61506;BME280;47366;51.916;4.574;2022-11-15T01:02:21;100855.72;;;7.20;97.70
61506;BME280;47366;51.916;4.574;2022-11-15T01:04:47;100854.69;;;7.23;97.89
61506;BME280;47366;51.916;4.574;2022-11-15T01:07:12;100856.44;;;7.24;98.40
61506;BME280;47366;51.916;4.574;2022-11-15T01:09:38;100847.34;;;7.27;98.03
61506;BME280;47366;51.916;4.574;2022-11-15T01:12:04;100856.22;;;7.29;97.88
61506;BME280;47366;51.916;4.574;2022-11-15T01:14:29;100844.50;;;7.30;97.56
61506;BME280;47366;51.916;4.574;2022-11-15T01:16:54;100853.41;;;7.32;97.89
61506;BME280;47366;51.916;4.574;2022-11-15T01:19:20;100849.59;;;7.36;97.71
61506;BME280;47366;51.916;4.574;2022-11-15T01:21:45;100851.19;;;7.40;97.57
61506;BME280;47366;51.916;4.574;2022-11-15T01:24:12;100849.31;;;7.42;97.67
61506;BME280;47366;51.916;4.574;2022-11-15T01:26:38;100846.59;;;7.42;98.53
61506;BME280;47366;51.916;4.574;2022-11-15T01:29:04;100838.38;;;7.45;97.66
61506;BME280;47366;51.916;4.574;2022-11-15T01:31:29;100836.63;;;7.44;97.84
61506;BME280;47366;51.916;4.574;2022-11-15T01:33:54;100833.78;;;7.47;98.74
61506;BME280;47366;51.916;4.574;2022-11-15T01:36:21;100834.59;;;7.49;99.30
61506;BME280;47366;51.916;4.574;2022-11-15T01:38:55;100821.09;;;7.49;98.61
61506;BME280;47366;51.916;4.574;2022-11-15T01:41:24;100820.06;;;7.52;98.55
61506;BME280;47366;51.916;4.574;2022-11-15T01:43:53;100813.66;;;7.54;98.11
61506;BME280;47366;51.916;4.574;2022-11-15T01:46:27;100812.63;;;7.57;99.71
61506;BME280;47366;51.916;4.574;2022-11-15T01:48:55;100815.16;;;7.60;98.99
61506;BME280;47366;51.916;4.574;2022-11-15T01:51:25;100809.72;;;7.61;99.24
61506;BME280;47366;51.916;4.574;2022-11-15T01:53:54;100811.22;;;7.67;99.53
61506;BME280;47366;51.916;4.574;2022-11-15T01:56:24;100807.66;;;7.66;99.07
61506;BME280;47366;51.916;4.574;2022-11-15T01:58:51;100810.06;;;7.73;99.12
61506;BME280;47366;51.916;4.574;2022-11-15T02:01:17;100805.53;;;7.73;99.13
61506;BME280;47366;51.916;4.574;2022-11-15T02:03:51;100809.72;;;7.79;98.98
61506;BME280;47366;51.916;4.574;2022-11-15T02:06:18;100800.72;;;7.80;99.14
61506;BME280;47366;51.916;4.574;2022-11-15T02:08:44;100796.13;;;7.82;98.83
61506;BME280;47366;51.916;4.574;2022-11-15T02:11:10;100793.25;;;7.85;99.35
61506;BME280;47366;51.916;4.574;2022-11-15T02:13:36;100782.47;;;7.85;99.77
61506;BME280;47366;51.916;4.574;2022-11-15T02:16:11;100782.13;;;7.91;99.96
61506;BME280;47366;51.916;4.574;2022-11-15T02:18:43;100779.38;;;7.93;99.18
61506;BME280;47366;51.916;4.574;2022-11-15T02:24:25;100770.88;;;8.00;100.00
61506;BME280;47366;51.916;4.574;2022-11-15T02:32:52;100771.00;;;8.15;100.00
61506;BME280;47366;51.916;4.574;2022-11-15T02:37:59;100760.53;;;8.26;100.00
61506;BME280;47366;51.916;4.574;2022-11-15T02:43:11;100759.00;;;8.38;100.00
61506;BME280;47366;51.916;4.574;2022-11-15T02:46:12;100750.69;;;8.42;100.00
61506;BME280;47366;51.916;4.574;2022-11-15T02:48:41;100755.13;;;8.43;100.00
61506;BME280;47366;51.916;4.574;2022-11-15T02:51:08;100752.09;;;8.49;100.00
61506;BME280;47366;51.916;4.574;2022-11-15T02:53:34;100752.78;;;8.53;100.00
61506;BME280;47366;51.916;4.574;2022-11-15T02:55:59;100751.69;;;8.57;100.00
61506;BME280;47366;51.916;4.574;2022-11-15T02:58:42;100748.72;;;8.62;100.00
61506;BME280;47366;51.916;4.574;2022-11-15T03:01:16;100750.31;;;8.66;100.00
61506;BME280;47366;51.916;4.574;2022-11-15T03:04:19;100743.88;;;8.68;100.00
61506;BME280;47366;51.916;4.574;2022-11-15T03:10:12;100736.13;;;8.78;100.00
61506;BME280;47366;51.916;4.574;2022-11-15T03:12:48;100742.22;;;8.82;100.00
61506;BME280;47366;51.916;4.574;2022-11-15T03:15:37;100744.56;;;8.88;100.00
61506;BME280;47366;51.916;4.574;2022-11-15T03:18:25;100746.22;;;8.90;100.00
61506;BME280;47366;51.916;4.574;2022-11-15T03:20:55;100734.50;;;8.91;100.00
61506;BME280;47366;51.916;4.574;2022-11-15T03:23:23;100734.19;;;8.96;100.00
61506;BME280;47366;51.916;4.574;2022-11-15T03:25:50;100741.44;;;8.96;100.00
61506;BME280;47366;51.916;4.574;2022-11-15T03:28:22;100744.84;;;8.99;100.00
61506;BME280;47366;51.916;4.574;2022-11-15T03:30:49;100740.25;;;9.01;100.00
61506;BME280;47366;51.916;4.574;2022-11-15T03:33:16;100744.59;;;9.04;100.00
61506;BME280;47366;51.916;4.574;2022-11-15T03:35:44;100748.84;;;9.08;100.00
61506;BME280;47366;51.916;4.574;2022-11-15T03:38:24;100744.94;;;9.13;100.00
61506;BME280;47366;51.916;4.574;2022-11-15T03:41:15;100743.81;;;9.18;100.00
61506;BME280;47366;51.916;4.574;2022-11-15T03:43:59;100747.19;;;9.21;100.00
61506;BME280;47366;51.916;4.574;2022-11-15T03:46:35;100746.13;;;9.24;100.00
61506;BME280;47366;51.916;4.574;2022-11-15T03:49:32;100745.69;;;9.31;100.00
61506;BME280;47366;51.916;4.574;2022-11-15T03:52:00;100743.00;;;9.31;100.00
61506;BME280;47366;51.916;4.574;2022-11-15T03:54:26;100747.34;;;9.34;100.00
61506;BME280;47366;51.916;4.574;2022-11-15T03:56:52;100739.94;;;9.38;100.00
61506;BME280;47366;51.916;4.574;2022-11-15T03:59:17;100740.72;;;9.40;100.00
61506;BME280;47366;51.916;4.574;2022-11-15T04:01:42;100737.84;;;9.43;100.00
61506;BME280;47366;51.916;4.574;2022-11-15T04:04:07;100729.72;;;9.43;100.00
61506;BME280;47366;51.916;4.574;2022-11-15T04:06:33;100733.13;;;9.46;100.00
61506;BME280;47366;51.916;4.574;2022-11-15T04:08:59;100732.09;;;9.49;100.00
61506;BME280;47366;51.916;4.574;2022-11-15T04:11:24;100728.41;;;9.50;100.00
61506;BME280;47366;51.916;4.574;2022-11-15T04:13:49;100720.28;;;9.50;100.00
61506;BME280;47366;51.916;4.574;2022-11-15T04:16:14;100718.44;;;9.50;100.00
61506;BME280;47366;51.916;4.574;2022-11-15T04:18:40;100717.59;;;9.50;100.00
61506;BME280;47366;51.916;4.574;2022-11-15T04:21:05;100717.50;;;9.51;100.00
61506;BME280;47366;51.916;4.574;2022-11-15T04:23:50;100709.19;;;9.54;100.00
61506;BME280;47366;51.916;4.574;2022-11-15T04:26:34;100712.56;;;9.58;100.00
61506;BME280;47366;51.916;4.574;2022-11-15T04:29:00;100708.16;;;9.57;100.00
61506;BME280;47366;51.916;4.574;2022-11-15T04:31:44;100715.13;;;9.61;100.00
61506;BME280;47366;51.916;4.574;2022-11-15T04:34:09;100724.03;;;9.63;100.00
61506;BME280;47366;51.916;4.574;2022-11-15T04:36:34;100726.63;;;9.65;100.00
61506;BME280;47366;51.916;4.574;2022-11-15T04:39:18;100727.41;;;9.67;100.00
61506;BME280;47366;51.916;4.574;2022-11-15T04:41:43;100724.63;;;9.68;100.00
61506;BME280;47366;51.916;4.574;2022-11-15T04:44:08;100723.44;;;9.72;100.00
61506;BME280;47366;51.916;4.574;2022-11-15T04:46:34;100729.47;;;9.77;100.00
61506;BME280;47366;51.916;4.574;2022-11-15T04:49:00;100735.63;;;9.79;100.00
61506;BME280;47366;51.916;4.574;2022-11-15T04:51:26;100737.31;;;9.82;100.00
61506;BME280;47366;51.916;4.574;2022-11-15T04:53:52;100738.06;;;9.84;100.00
61506;BME280;47366;51.916;4.574;2022-11-15T04:56:17;100744.09;;;9.89;100.00
61506;BME280;47366;51.916;4.574;2022-11-15T04:58:42;100739.44;;;9.91;100.00
61506;BME280;47366;51.916;4.574;2022-11-15T05:01:12;100742.13;;;9.91;100.00
61506;BME280;47366;51.916;4.574;2022-11-15T05:03:40;100745.75;;;9.92;100.00
61506;BME280;47366;51.916;4.574;2022-11-15T05:06:24;100750.19;;;9.93;100.00
61506;BME280;47366;51.916;4.574;2022-11-15T05:08:49;100745.47;;;9.96;100.00
61506;BME280;47366;51.916;4.574;2022-11-15T05:11:14;100743.63;;;9.97;100.00
61506;BME280;47366;51.916;4.574;2022-11-15T05:13:40;100745.28;;;9.99;100.00
61506;BME280;47366;51.916;4.574;2022-11-15T05:16:05;100747.13;;;9.99;100.00
61506;BME280;47366;51.916;4.574;2022-11-15T05:18:31;100744.28;;;10.00;100.00
61506;BME280;47366;51.916;4.574;2022-11-15T05:21:03;100743.44;;;10.00;100.00
61506;BME280;47366;51.916;4.574;2022-11-15T05:23:28;100746.91;;;10.02;100.00
61506;BME280;47366;51.916;4.574;2022-11-15T05:25:59;100737.16;;;9.99;100.00
61506;BME280;47366;51.916;4.574;2022-11-15T05:28:24;100738.88;;;10.00;100.00
61506;BME280;47366;51.916;4.574;2022-11-15T05:30:49;100733.59;;;9.99;100.00
61506;BME280;47366;51.916;4.574;2022-11-15T05:33:15;100736.09;;;10.02;100.00
61506;BME280;47366;51.916;4.574;2022-11-15T05:35:42;100736.09;;;10.02;100.00
61506;BME280;47366;51.916;4.574;2022-11-15T05:38:11;100729.91;;;10.00;100.00
61506;BME280;47366;51.916;4.574;2022-11-15T05:40:36;100736.09;;;10.02;100.00
61506;BME280;47366;51.916;4.574;2022-11-15T05:43:03;100743.34;;;10.02;100.00
61506;BME280;47366;51.916;4.574;2022-11-15T05:45:29;100734.44;;;9.99;100.00
61506;BME280;47366;51.916;4.574;2022-11-15T05:47:57;100736.28;;;9.99;100.00
61506;BME280;47366;51.916;4.574;2022-11-15T05:50:25;100741.69;;;9.99;100.00
61506;BME280;47366;51.916;4.574;2022-11-15T05:52:50;100746.13;;;10.00;100.00
61506;BME280;47366;51.916;4.574;2022-11-15T05:55:16;100747.97;;;9.99;100.00
61506;BME280;47366;51.916;4.574;2022-11-15T05:57:42;100743.50;;;9.98;100.00
61506;BME280;47366;51.916;4.574;2022-11-15T06:00:08;100737.34;;;9.96;100.00
61506;BME280;47366;51.916;4.574;2022-11-15T06:02:34;100747.13;;;9.99;100.00
61506;BME280;47366;51.916;4.574;2022-11-15T06:05:00;100742.66;;;9.98;100.00
61506;BME280;47366;51.916;4.574;2022-11-15T06:07:25;100751.53;;;10.00;100.00
61506;BME280;47366;51.916;4.574;2022-11-15T06:09:50;100749.91;;;9.97;99.80
61506;BME280;47366;51.916;4.574;2022-11-15T06:12:16;100755.22;;;9.99;100.00
61506;BME280;47366;51.916;4.574;2022-11-15T06:14:41;100759.84;;;9.97;99.68
61506;BME280;47366;51.916;4.574;2022-11-15T06:17:06;100766.13;;;9.97;99.91
61506;BME280;47366;51.916;4.574;2022-11-15T06:19:31;100763.63;;;9.94;99.20
61506;BME280;47366;51.916;4.574;2022-11-15T06:21:59;100780.03;;;9.91;99.12
61506;BME280;47366;51.916;4.574;2022-11-15T06:24:24;100767.53;;;9.89;99.06
61506;BME280;47366;51.916;4.574;2022-11-15T06:26:50;100773.16;;;9.86;98.90
61506;BME280;47366;51.916;4.574;2022-11-15T06:29:15;100774.91;;;9.87;99.01
61506;BME280;47366;51.916;4.574;2022-11-15T06:31:40;100777.69;;;9.85;99.06
61506;BME280;47366;51.916;4.574;2022-11-15T06:34:06;100768.88;;;9.82;98.97
61506;BME280;47366;51.916;4.574;2022-11-15T06:36:34;100771.59;;;9.82;98.97
61506;BME280;47366;51.916;4.574;2022-11-15T06:38:59;100766.38;;;9.78;99.03
61506;BME280;47366;51.916;4.574;2022-11-15T06:41:25;100756.59;;;9.76;98.90
61506;BME280;47366;51.916;4.574;2022-11-15T06:43:50;100766.56;;;9.75;98.97
61506;BME280;47366;51.916;4.574;2022-11-15T06:46:15;100766.63;;;9.74;98.92
61506;BME280;47366;51.916;4.574;2022-11-15T06:48:41;100770.31;;;9.73;98.96
61506;BME280;47366;51.916;4.574;2022-11-15T06:51:06;100791.75;;;9.76;98.71
61506;BME280;47366;51.916;4.574;2022-11-15T06:53:32;100783.91;;;9.71;99.05
61506;BME280;47366;51.916;4.574;2022-11-15T06:55:59;100786.63;;;9.71;99.05
61506;BME280;47366;51.916;4.574;2022-11-15T06:58:25;100782.19;;;9.70;98.70
61506;BME280;47366;51.916;4.574;2022-11-15T07:00:51;100782.09;;;9.72;98.88
61506;BME280;47366;51.916;4.574;2022-11-15T07:03:16;100782.94;;;9.72;98.39
61506;BME280;47366;51.916;4.574;2022-11-15T07:05:41;100780.16;;;9.74;98.50
61506;BME280;47366;51.916;4.574;2022-11-15T07:08:07;100773.97;;;9.72;98.29
61506;BME280;47366;51.916;4.574;2022-11-15T07:10:32;100778.44;;;9.73;97.91
61506;BME280;47366;51.916;4.574;2022-11-15T07:12:57;100786.63;;;9.71;97.81
61506;BME280;47366;51.916;4.574;2022-11-15T07:15:24;100787.41;;;9.73;97.66
61506;BME280;47366;51.916;4.574;2022-11-15T07:17:50;100783.66;;;9.76;97.69
61506;BME280;47366;51.916;4.574;2022-11-15T07:20:16;100787.41;;;9.73;97.41
61506;BME280;47366;51.916;4.574;2022-11-15T07:22:41;100785.66;;;9.72;97.44
61506;BME280;47366;51.916;4.574;2022-11-15T07:25:08;100793.69;;;9.74;97.19
61506;BME280;47366;51.916;4.574;2022-11-15T07:27:33;100792.81;;;9.73;97.04
61506;BME280;47366;51.916;4.574;2022-11-15T07:29:59;100790.03;;;9.75;96.80
61506;BME280;47366;51.916;4.574;2022-11-15T07:32:24;100787.41;;;9.73;96.52
61506;BME280;47366;51.916;4.574;2022-11-15T07:34:50;100781.22;;;9.71;96.53
61506;BME280;47366;51.916;4.574;2022-11-15T07:37:15;100780.16;;;9.74;96.56
61506;BME280;47366;51.916;4.574;2022-11-15T07:39:42;100773.28;;;9.68;96.33
61506;BME280;47366;51.916;4.574;2022-11-15T07:42:07;100776.94;;;9.67;96.47
61506;BME280;47366;51.916;4.574;2022-11-15T07:44:51;100779.66;;;9.67;96.66
61506;BME280;47366;51.916;4.574;2022-11-15T07:47:16;100784.13;;;9.68;96.48
61506;BME280;47366;51.916;4.574;2022-11-15T07:49:41;100782.34;;;9.67;96.62
61506;BME280;47366;51.916;4.574;2022-11-15T07:52:07;100782.47;;;9.66;96.70
61506;BME280;47366;51.916;4.574;2022-11-15T07:54:32;100771.81;;;9.63;96.66
61506;BME280;47366;51.916;4.574;2022-11-15T07:56:57;100769.22;;;9.61;96.72
61506;BME280;47366;51.916;4.574;2022-11-15T07:59:22;100770.94;;;9.62;96.37
61506;BME280;47366;51.916;4.574;2022-11-15T08:01:48;100766.38;;;9.63;96.63
61506;BME280;47366;51.916;4.574;2022-11-15T08:04:13;100760.13;;;9.62;96.47
61506;BME280;47366;51.916;4.574;2022-11-15T08:06:39;100757.59;;;9.59;96.71
61506;BME280;47366;51.916;4.574;2022-11-15T08:09:04;100753.84;;;9.62;96.77
61506;BME280;47366;51.916;4.574;2022-11-15T08:11:29;100745.81;;;9.60;96.90
61506;BME280;47366;51.916;4.574;2022-11-15T08:13:55;100745.66;;;9.63;96.84
61506;BME280;47366;51.916;4.574;2022-11-15T08:16:20;100749.03;;;9.67;96.70
61506;BME280;47366;51.916;4.574;2022-11-15T08:18:46;100753.38;;;9.69;96.59
61506;BME280;47366;51.916;4.574;2022-11-15T08:21:14;100757.75;;;9.72;96.54
61506;BME280;47366;51.916;4.574;2022-11-15T08:23:43;100754.16;;;9.71;96.64
61506;BME280;47366;51.916;4.574;2022-11-15T08:26:08;100747.72;;;9.74;96.55
61506;BME280;47366;51.916;4.574;2022-11-15T08:28:34;100743.00;;;9.77;96.45
61506;BME280;47366;51.916;4.574;2022-11-15T08:31:00;100743.00;;;9.77;96.46
61506;BME280;47366;51.916;4.574;2022-11-15T08:33:26;100739.22;;;9.80;96.14
61506;BME280;47366;51.916;4.574;2022-11-15T08:35:56;100735.63;;;9.79;96.07
61506;BME280;47366;51.916;4.574;2022-11-15T08:38:21;100730.06;;;9.83;95.99
61506;BME280;47366;51.916;4.574;2022-11-15T08:40:47;100723.00;;;9.80;95.67
61506;BME280;47366;51.916;4.574;2022-11-15T08:43:12;100720.19;;;9.82;95.64
61506;BME280;47366;51.916;4.574;2022-11-15T08:45:38;100712.78;;;9.85;95.56
61506;BME280;47366;51.916;4.574;2022-11-15T08:48:03;100716.25;;;9.87;95.20
61506;BME280;47366;51.916;4.574;2022-11-15T08:50:29;100713.44;;;9.89;94.92
61506;BME280;47366;51.916;4.574;2022-11-15T08:52:54;100716.13;;;9.89;94.96
61506;BME280;47366;51.916;4.574;2022-11-15T08:55:19;100723.13;;;9.93;94.72
61506;BME280;47366;51.916;4.574;2022-11-15T08:57:45;100731.03;;;9.96;94.61
61506;BME280;47366;51.916;4.574;2022-11-15T09:00:11;100725.63;;;9.96;94.45
61506;BME280;47366;51.916;4.574;2022-11-15T09:02:38;100726.53;;;9.96;94.32
61506;BME280;47366;51.916;4.574;2022-11-15T09:05:04;100726.25;;;10.01;93.90
61506;BME280;47366;51.916;4.574;2022-11-15T09:07:30;100729.03;;;9.99;93.42
61506;BME280;47366;51.916;4.574;2022-11-15T09:09:57;100721.59;;;10.03;93.59
61506;BME280;47366;51.916;4.574;2022-11-15T09:12:22;100720.34;;;10.09;93.39
61506;BME280;47366;51.916;4.574;2022-11-15T09:14:48;100720.84;;;10.15;93.14
61506;BME280;47366;51.916;4.574;2022-11-15T09:17:13;100721.44;;;10.20;93.26
61506;BME280;47366;51.916;4.574;2022-11-15T09:19:38;100719.19;;;10.27;92.18
61506;BME280;47366;51.916;4.574;2022-11-15T09:22:07;100726.13;;;10.33;92.91
61506;BME280;47366;51.916;4.574;2022-11-15T09:24:33;100723.59;;;10.44;92.35
61506;BME280;47366;51.916;4.574;2022-11-15T09:26:59;100724.97;;;10.51;91.87
61506;BME280;47366;51.916;4.574;2022-11-15T09:29:24;100726.19;;;10.60;92.24
61506;BME280;47366;51.916;4.574;2022-11-15T09:31:52;100717.78;;;10.65;91.13
61506;BME280;47366;51.916;4.574;2022-11-15T09:34:17;100712.94;;;10.70;90.48
61506;BME280;47366;51.916;4.574;2022-11-15T09:36:42;100718.91;;;10.75;90.28
61506;BME280;47366;51.916;4.574;2022-11-15T09:39:08;100712.13;;;10.82;90.52
61506;BME280;47366;51.916;4.574;2022-11-15T09:42:30;100716.00;;;10.92;89.50
61506;BME280;47366;51.916;4.574;2022-11-15T09:45:04;100721.13;;;10.97;88.65
61506;BME280;47366;51.916;4.574;2022-11-15T09:50:09;100695.66;;;10.99;87.69
61506;BME280;47366;51.916;4.574;2022-11-15T09:52:36;100697.84;;;11.07;87.88
61506;BME280;47366;51.916;4.574;2022-11-15T09:55:04;100687.66;;;11.11;87.74
61506;BME280;47366;51.916;4.574;2022-11-15T09:57:50;100694.16;;;11.08;86.68
61506;BME280;47366;51.916;4.574;2022-11-15T10:00:22;100690.03;;;11.02;87.53
61506;BME280;47366;51.916;4.574;2022-11-15T10:05:46;100682.97;;;11.00;85.91
61506;BME280;47366;51.916;4.574;2022-11-15T10:08:37;100678.78;;;11.09;87.07
61506;BME280;47366;51.916;4.574;2022-11-15T10:11:09;100678.19;;;11.18;85.91
61506;BME280;47366;51.916;4.574;2022-11-15T10:13:39;100672.13;;;11.27;86.19
61506;BME280;47366;51.916;4.574;2022-11-15T10:16:36;100684.09;;;11.37;85.45
61506;BME280;47366;51.916;4.574;2022-11-15T10:24:27;100667.31;;;11.58;84.82
61506;BME280;47366;51.916;4.574;2022-11-15T10:26:56;100649.09;;;11.60;84.12
61506;BME280;47366;51.916;4.574;2022-11-15T10:29:23;100658.34;;;11.70;83.40
61506;BME280;47366;51.916;4.574;2022-11-15T10:31:49;100644.66;;;11.72;82.54
61506;BME280;47366;51.916;4.574;2022-11-15T10:34:17;100640.44;;;11.80;83.53
61506;BME280;47366;51.916;4.574;2022-11-15T10:36:57;100632.31;;;11.80;82.47
61506;BME280;47366;51.916;4.574;2022-11-15T10:39:23;100638.50;;;11.82;83.34
61506;BME280;47366;51.916;4.574;2022-11-15T10:41:49;100623.72;;;11.74;82.97
61506;BME280;47366;51.916;4.574;2022-11-15T10:44:18;100637.19;;;11.75;82.66
61506;BME280;47366;51.916;4.574;2022-11-15T10:46:47;100636.09;;;11.65;82.68
61506;BME280;47366;51.916;4.574;2022-11-15T10:54:41;100629.25;;;11.46;81.32
61506;BME280;47366;51.916;4.574;2022-11-15T10:57:13;100619.69;;;11.54;81.69
61506;BME280;47366;51.916;4.574;2022-11-15T10:59:44;100615.25;;;11.65;81.19
61506;BME280;47366;51.916;4.574;2022-11-15T11:02:28;100612.78;;;11.75;80.60
61506;BME280;47366;51.916;4.574;2022-11-15T11:04:54;100604.19;;;11.68;81.09
61506;BME280;47366;51.916;4.574;2022-11-15T11:07:22;100610.38;;;11.71;80.77
61506;BME280;47366;51.916;4.574;2022-11-15T11:10:38;100597.56;;;11.73;81.04
61506;BME280;47366;51.916;4.574;2022-11-15T11:12:44;100588.44;;;11.74;80.54
61506;BME280;47366;51.916;4.574;2022-11-15T11:15:12;100586.28;;;11.79;80.26
61506;BME280;47366;51.916;4.574;2022-11-15T11:17:58;100576.94;;;11.83;80.23
61506;BME280;47366;51.916;4.574;2022-11-15T11:20:36;100563.09;;;11.87;79.50
61506;BME280;47366;51.916;4.574;2022-11-15T11:23:03;100563.94;;;11.88;80.25
61506;BME280;47366;51.916;4.574;2022-11-15T11:26:07;100563.25;;;11.84;80.60
61506;BME280;47366;51.916;4.574;2022-11-15T11:29:00;100562.28;;;11.85;79.94
61506;BME280;47366;51.916;4.574;2022-11-15T11:31:37;100552.63;;;11.81;79.17
61506;BME280;47366;51.916;4.574;2022-11-15T11:42:54;100538.09;;;11.82;79.35
61506;BME280;47366;51.916;4.574;2022-11-15T11:48:11;100530.06;;;11.94;77.95
61506;BME280;47366;51.916;4.574;2022-11-15T11:50:38;100520.47;;;12.01;77.20
61506;BME280;47366;51.916;4.574;2022-11-15T11:53:30;100520.56;;;12.12;78.18
61506;BME280;47366;51.916;4.574;2022-11-15T11:56:02;100500.91;;;12.21;78.05
61506;BME280;47366;51.916;4.574;2022-11-15T11:58:38;100505.66;;;12.18;75.53
61506;BME280;47366;51.916;4.574;2022-11-15T12:04:27;100502.19;;;12.28;77.00
61506;BME280;47366;51.916;4.574;2022-11-15T12:07:07;100499.75;;;12.37;77.40
61506;BME280;47366;51.916;4.574;2022-11-15T12:09:39;100487.44;;;12.44;75.74
61506;BME280;47366;51.916;4.574;2022-11-15T12:12:21;100475.25;;;12.49;76.42
61506;BME280;47366;51.916;4.574;2022-11-15T12:14:55;100471.84;;;12.59;76.38
61506;BME280;47366;51.916;4.574;2022-11-15T12:17:25;100463.56;;;12.60;74.76
61506;BME280;47366;51.916;4.574;2022-11-15T12:19:55;100462.00;;;12.69;74.83
61506;BME280;47366;51.916;4.574;2022-11-15T12:25:01;100455.84;;;12.78;74.11
61506;BME280;47366;51.916;4.574;2022-11-15T12:27:38;100454.25;;;12.75;74.08
61506;BME280;47366;51.916;4.574;2022-11-15T12:30:13;100454.81;;;12.68;73.70
61506;BME280;47366;51.916;4.574;2022-11-15T12:32:59;100446.09;;;12.75;74.96
61506;BME280;47366;51.916;4.574;2022-11-15T12:35:42;100446.19;;;12.74;74.98
61506;BME280;47366;51.916;4.574;2022-11-15T12:38:11;100444.44;;;12.62;72.11
61506;BME280;47366;51.916;4.574;2022-11-15T12:40:39;100443.78;;;12.58;74.08
61506;BME280;47366;51.916;4.574;2022-11-15T12:43:42;100436.47;;;12.47;74.07
61506;BME280;47366;51.916;4.574;2022-11-15T12:48:56;100427.06;;;12.40;73.44
61506;BME280;47366;51.916;4.574;2022-11-15T12:59:53;100405.34;;;12.16;73.79
61506;BME280;47366;51.916;4.574;2022-11-15T13:05:25;100399.25;;;12.13;75.07
61506;BME280;47366;51.916;4.574;2022-11-15T13:17:47;100382.69;;;12.04;73.48
61506;BME280;47366;51.916;4.574;2022-11-15T13:22:45;100371.09;;;12.02;73.17
61506;BME280;47366;51.916;4.574;2022-11-15T13:28:33;100360.06;;;11.93;71.72
61506;BME280;47366;51.916;4.574;2022-11-15T13:31:13;100355.47;;;11.93;72.84
61506;BME280;47366;51.916;4.574;2022-11-15T13:33:42;100352.88;;;11.92;72.83
61506;BME280;47366;51.916;4.574;2022-11-15T13:36:26;100349.53;;;11.88;72.61
61506;BME280;47366;51.916;4.574;2022-11-15T13:38:56;100349.53;;;11.88;72.89
61506;BME280;47366;51.916;4.574;2022-11-15T13:41:25;100346.16;;;11.84;72.79
61506;BME280;47366;51.916;4.574;2022-11-15T13:43:52;100340.00;;;11.82;72.45
61506;BME280;47366;51.916;4.574;2022-11-15T13:46:23;100322.94;;;11.80;72.58
61506;BME280;47366;51.916;4.574;2022-11-15T13:48:55;100317.63;;;11.79;73.32
61506;BME280;47366;51.916;4.574;2022-11-15T13:51:23;100319.59;;;11.77;73.26
61506;BME280;47366;51.916;4.574;2022-11-15T13:54:20;100315.16;;;11.76;73.88
61506;BME280;47366;51.916;4.574;2022-11-15T13:57:08;100309.09;;;11.72;72.91
61506;BME280;47366;51.916;4.574;2022-11-15T13:59:43;100297.59;;;11.68;72.93
61506;BME280;47366;51.916;4.574;2022-11-15T14:02:15;100293.28;;;11.66;73.91
61506;BME280;47366;51.916;4.574;2022-11-15T14:04:51;100283.91;;;11.70;73.34
61506;BME280;47366;51.916;4.574;2022-11-15T14:07:20;100268.53;;;11.71;74.27
61506;BME280;47366;51.916;4.574;2022-11-15T14:09:46;100273.19;;;11.68;74.21
61506;BME280;47366;51.916;4.574;2022-11-15T14:12:34;100275.16;;;11.66;73.66
61506;BME280;47366;51.916;4.574;2022-11-15T14:15:18;100266.00;;;11.67;74.59
61506;BME280;47366;51.916;4.574;2022-11-15T14:17:44;100255.41;;;11.64;74.04
61506;BME280;47366;51.916;4.574;2022-11-15T14:22:53;100249.13;;;11.64;74.37
61506;BME280;47366;51.916;4.574;2022-11-15T14:25:24;100237.91;;;11.68;74.36
61506;BME280;47366;51.916;4.574;2022-11-15T14:28:09;100232.50;;;11.68;74.12
61506;BME280;47366;51.916;4.574;2022-11-15T14:30:35;100227.28;;;11.65;74.34